createdAt,value
2018-11-21T00:01:38.893Z,17.57
2018-11-21T00:04:11.337Z,17.10
2018-11-21T00:06:38.563Z,17.20
2018-11-21T00:09:07.562Z,18.30
2018-11-21T00:11:35.057Z,15.80
2018-11-21T00:14:02.308Z,17.60
2018-11-21T00:16:29.630Z,18.07
2018-11-21T00:19:00.793Z,17.80
2018-11-21T00:21:25.304Z,18.07
2018-11-21T00:23:53.726Z,17.50
2018-11-21T00:26:21.044Z,16.80
2018-11-21T00:28:48.841Z,18.33
2018-11-21T00:31:16.011Z,16.63
2018-11-21T00:33:43.311Z,17.10
2018-11-21T00:36:10.588Z,17.77
2018-11-21T00:38:37.766Z,18.07
2018-11-21T00:41:05.021Z,18.00
2018-11-21T00:43:32.641Z,17.63
2018-11-21T00:46:00.584Z,18.30
2018-11-21T00:48:27.934Z,17.73
2018-11-21T00:50:55.213Z,18.00
2018-11-21T00:53:24.150Z,18.47
2018-11-21T00:55:51.561Z,18.67
2018-11-21T00:58:19.344Z,17.77
2018-11-21T01:00:46.621Z,19.00
2018-11-21T01:03:14.130Z,17.70
2018-11-21T01:05:43.243Z,19.23
2018-11-21T01:08:11.981Z,18.63
2018-11-21T01:10:39.232Z,18.83
2018-11-21T01:13:06.447Z,19.40
2018-11-21T01:15:34.692Z,18.87
2018-11-21T01:18:01.826Z,19.43
2018-11-21T01:20:32.152Z,18.50
2018-11-21T01:23:00.845Z,20.07
2018-11-21T01:25:28.212Z,19.30
2018-11-21T01:27:55.569Z,21.30
2018-11-21T01:30:22.992Z,20.03
2018-11-21T01:32:50.422Z,18.73
2018-11-21T01:35:18.252Z,19.10
2018-11-21T01:37:46.465Z,19.50
2018-11-21T01:40:14.143Z,19.43
2018-11-21T01:42:42.331Z,19.23
2018-11-21T01:45:10.077Z,19.53
2018-11-21T01:47:38.201Z,20.03
2018-11-21T01:50:06.939Z,20.80
2018-11-21T01:52:34.416Z,18.73
2018-11-21T01:55:02.707Z,19.73
2018-11-21T01:57:30.528Z,20.07
2018-11-21T01:59:58.356Z,20.57
2018-11-21T02:02:27.629Z,20.93
2018-11-21T02:04:55.521Z,20.00
2018-11-21T02:07:23.471Z,20.20
2018-11-21T02:09:50.767Z,20.00
2018-11-21T02:12:18.005Z,20.67
2018-11-21T02:14:45.649Z,17.97
2018-11-21T02:17:14.730Z,19.70
2018-11-21T02:19:41.976Z,20.37
2018-11-21T02:22:12.703Z,20.70
2018-11-21T02:24:43.268Z,19.37
2018-11-21T02:27:10.934Z,20.13
2018-11-21T02:29:38.798Z,20.10
2018-11-21T02:32:06.350Z,18.90
2018-11-21T02:34:34.860Z,20.73
2018-11-21T02:37:02.093Z,19.83
2018-11-21T02:39:29.876Z,18.67
2018-11-21T02:41:57.402Z,19.57
2018-11-21T02:46:59.901Z,20.37
2018-11-21T02:49:27.116Z,19.60
2018-11-21T02:51:54.463Z,21.40
2018-11-21T02:54:21.975Z,19.63
2018-11-21T02:57:14.850Z,20.70
2018-11-21T02:59:42.205Z,21.33
2018-11-21T03:02:09.569Z,20.87
2018-11-21T03:04:36.886Z,19.80
2018-11-21T03:07:04.315Z,22.70
2018-11-21T03:09:32.131Z,21.20
2018-11-21T03:11:59.461Z,19.90
2018-11-21T03:14:27.197Z,20.67
2018-11-21T03:16:55.620Z,21.13
2018-11-21T03:19:23.064Z,20.70
2018-11-21T03:21:50.952Z,19.50
2018-11-21T03:24:18.314Z,20.80
2018-11-21T03:26:45.525Z,21.07
2018-11-21T03:29:13.937Z,19.30
2018-11-21T03:31:41.259Z,20.60
2018-11-21T03:34:08.789Z,21.10
2018-11-21T03:36:36.286Z,19.97
2018-11-21T03:39:07.720Z,21.57
2018-11-21T03:41:34.892Z,21.23
2018-11-21T03:44:07.904Z,21.10
2018-11-21T03:46:45.796Z,22.80
2018-11-21T03:49:14.103Z,21.30
2018-11-21T03:51:42.607Z,21.07
2018-11-21T03:54:10.376Z,20.27
2018-11-21T03:56:38.242Z,20.30
2018-11-21T03:59:06.102Z,19.70
2018-11-21T04:01:33.385Z,21.67
2018-11-21T04:04:01.359Z,23.57
2018-11-21T04:06:28.950Z,22.93
2018-11-21T04:08:56.394Z,22.13
2018-11-21T04:11:23.758Z,20.27
2018-11-21T04:13:51.488Z,21.23
2018-11-21T04:16:18.909Z,20.40
2018-11-21T04:18:52.574Z,21.23
2018-11-21T04:21:21.399Z,21.80
2018-11-21T04:23:49.171Z,20.83
2018-11-21T04:26:19.318Z,20.70
2018-11-21T04:28:46.802Z,20.00
2018-11-21T04:31:14.936Z,19.80
2018-11-21T04:33:42.141Z,21.73
2018-11-21T04:36:09.406Z,22.30
2018-11-21T04:38:39.613Z,20.53
2018-11-21T04:41:08.024Z,21.27
2018-11-21T04:43:36.460Z,22.47
2018-11-21T04:48:55.404Z,23.03
2018-11-21T04:51:23.110Z,23.10
2018-11-21T04:53:50.341Z,23.37
2018-11-21T04:56:17.728Z,22.13
2018-11-21T04:58:46.184Z,21.60
2018-11-21T05:01:13.455Z,21.63
2018-11-21T05:03:57.730Z,22.37
2018-11-21T05:06:26.316Z,21.00
2018-11-21T05:08:54.170Z,21.50
2018-11-21T05:11:21.727Z,21.83
2018-11-21T05:13:50.136Z,20.90
2018-11-21T05:16:17.543Z,21.63
2018-11-21T05:18:45.645Z,23.13
2018-11-21T05:21:13.171Z,21.27
2018-11-21T05:23:40.414Z,21.57
2018-11-21T05:26:07.951Z,20.97
2018-11-21T05:28:36.698Z,21.10
2018-11-21T05:31:04.924Z,22.43
2018-11-21T05:33:36.285Z,21.30
2018-11-21T05:36:04.611Z,21.97
2018-11-21T05:38:32.521Z,21.40
2018-11-21T05:40:59.697Z,20.37
2018-11-21T05:43:38.269Z,22.20
2018-11-21T05:46:06.214Z,21.90
2018-11-21T05:48:34.147Z,20.80
2018-11-21T05:51:01.495Z,20.70
2018-11-21T05:53:28.931Z,20.77
2018-11-21T05:55:56.583Z,22.23
2018-11-21T05:58:23.961Z,21.47
2018-11-21T06:00:51.372Z,20.40
2018-11-21T06:03:19.157Z,21.43
2018-11-21T06:05:46.970Z,20.87
2018-11-21T06:08:15.137Z,18.50
2018-11-21T06:10:42.399Z,18.53
2018-11-21T06:13:09.721Z,19.87
2018-11-21T06:15:36.976Z,21.00
2018-11-21T06:18:09.339Z,19.83
2018-11-21T06:20:35.321Z,20.97
2018-11-21T06:23:02.993Z,18.40
2018-11-21T06:25:31.365Z,19.73
2018-11-21T06:27:59.415Z,20.13
2018-11-21T06:30:27.210Z,17.10
2018-11-21T06:32:59.894Z,19.17
2018-11-21T06:35:29.269Z,19.00
2018-11-21T06:37:57.751Z,18.63
2018-11-21T06:40:27.315Z,19.03
2018-11-21T06:42:57.294Z,20.60
2018-11-21T06:45:29.750Z,20.30
2018-11-21T06:47:57.070Z,18.87
2018-11-21T06:50:24.387Z,20.63
2018-11-21T06:52:52.575Z,19.83
2018-11-21T06:55:20.174Z,19.60
2018-11-21T06:57:48.029Z,17.63
2018-11-21T07:00:16.455Z,18.73
2018-11-21T07:02:44.269Z,19.70
2018-11-21T07:05:11.963Z,20.00
2018-11-21T07:07:39.883Z,19.10
2018-11-21T07:10:10.014Z,19.60
2018-11-21T07:12:37.386Z,18.70
2018-11-21T07:15:09.275Z,18.23
2018-11-21T07:17:36.699Z,19.23
2018-11-21T07:20:06.539Z,18.37
2018-11-21T07:22:33.950Z,18.27
2018-11-21T07:25:01.300Z,19.00
2018-11-21T07:27:38.375Z,20.03
2018-11-21T07:30:08.358Z,19.27
2018-11-21T07:32:36.863Z,19.23
2018-11-21T07:35:04.182Z,18.40
2018-11-21T07:37:31.415Z,17.47
2018-11-21T07:39:58.654Z,18.03
2018-11-21T07:42:27.065Z,19.53
2018-11-21T07:44:53.498Z,18.10
2018-11-21T07:47:26.573Z,18.63
2018-11-21T07:49:48.588Z,17.53
2018-11-21T07:52:15.867Z,17.07
2018-11-21T07:54:43.196Z,18.30
2018-11-21T07:57:29.349Z,18.13
2018-11-21T08:01:02.880Z,17.53
2018-11-21T08:03:32.279Z,17.03
2018-11-21T08:06:03.327Z,19.00
2018-11-21T08:08:52.716Z,17.90
2018-11-21T08:11:43.212Z,18.37
2018-11-21T08:14:23.822Z,19.60
2018-11-21T08:17:09.285Z,18.17
2018-11-21T08:19:47.140Z,18.53
2018-11-21T08:22:32.978Z,18.80
2018-11-21T08:25:15.723Z,19.17
2018-11-21T08:28:08.909Z,17.40
2018-11-21T08:30:36.196Z,17.57
2018-11-21T08:33:03.543Z,19.03
2018-11-21T08:35:32.539Z,18.17
2018-11-21T08:37:59.523Z,18.63
2018-11-21T08:40:26.751Z,18.90
2018-11-21T08:42:54.978Z,17.03
2018-11-21T08:45:22.488Z,18.00
2018-11-21T08:47:49.768Z,17.33
2018-11-21T08:50:17.765Z,18.80
2018-11-21T08:52:45.020Z,15.93
2018-11-21T08:55:12.421Z,18.13
2018-11-21T08:57:39.988Z,17.43
2018-11-21T09:00:09.954Z,17.90
2018-11-21T09:02:37.996Z,17.03
2018-11-21T09:05:08.036Z,18.17
2018-11-21T09:07:36.624Z,18.63
2018-11-21T09:10:06.640Z,17.10
2018-11-21T09:12:34.801Z,16.00
2018-11-21T09:15:11.097Z,15.23
2018-11-21T09:17:42.327Z,16.23
2018-11-21T09:20:12.290Z,17.80
2018-11-21T09:22:43.802Z,15.20
2018-11-21T09:25:11.899Z,17.17
2018-11-21T09:27:40.846Z,17.37
2018-11-21T09:30:10.598Z,15.17
2018-11-21T09:32:41.972Z,17.30
2018-11-21T09:35:11.614Z,19.73
2018-11-21T09:37:40.673Z,16.90
2018-11-21T09:40:10.459Z,16.57
2018-11-21T09:42:46.594Z,15.90
2018-11-21T09:45:16.849Z,16.23
2018-11-21T09:47:44.634Z,15.47
2018-11-21T09:50:14.908Z,14.93
2018-11-21T09:52:42.330Z,16.90
2018-11-21T09:55:11.383Z,16.70
2018-11-21T09:57:42.404Z,15.63
2018-11-21T10:00:49.179Z,15.33
2018-11-21T10:03:19.230Z,18.43
2018-11-21T10:05:52.489Z,13.70
2018-11-21T10:08:49.128Z,15.60
2018-11-21T10:11:17.434Z,14.30
2018-11-21T10:13:45.190Z,12.90
2018-11-21T10:16:14.515Z,12.60
2018-11-21T10:18:46.934Z,10.67
2018-11-21T10:21:19.026Z,11.90
2018-11-21T10:23:46.651Z,12.53
2018-11-21T10:26:13.871Z,11.63
2018-11-21T10:28:43.304Z,13.57
2018-11-21T10:31:10.836Z,10.70
2018-11-21T10:33:38.149Z,10.80
2018-11-21T10:36:06.668Z,10.73
2018-11-21T10:38:34.115Z,10.63
2018-11-21T10:41:04.197Z,9.50
2018-11-21T10:43:42.075Z,9.00
2018-11-21T10:46:09.995Z,10.67
2018-11-21T10:50:11.391Z,10.40
2018-11-21T10:52:40.633Z,9.87
2018-11-21T11:03:05.504Z,10.50
2018-11-21T11:08:33.226Z,9.50
2018-11-21T11:14:09.713Z,9.37
2018-11-21T11:24:56.955Z,8.83
2018-11-21T11:35:48.546Z,9.40
2018-11-21T11:38:36.683Z,8.80
2018-11-21T11:44:14.958Z,9.00
2018-11-21T11:49:16.364Z,9.53
2018-11-21T11:52:14.193Z,8.60
2018-11-21T11:57:38.041Z,8.73
2018-11-21T12:00:22.690Z,9.47
2018-11-21T12:03:10.446Z,9.50
2018-11-21T12:10:46.268Z,9.80
2018-11-21T12:18:41.585Z,8.83
2018-11-21T12:23:58.672Z,9.00
2018-11-21T12:26:37.680Z,9.30
2018-11-21T12:31:58.855Z,9.00
2018-11-21T12:34:46.909Z,9.30
2018-11-21T12:40:08.268Z,10.20
2018-11-21T12:45:12.758Z,10.13
2018-11-21T12:48:16.595Z,9.67
2018-11-21T12:51:28.426Z,8.80
2018-11-21T13:23:23.185Z,9.43
2018-11-21T13:26:09.876Z,9.20
2018-11-21T13:31:32.097Z,9.93
2018-11-21T13:34:22.922Z,9.83
2018-11-21T13:37:12.832Z,9.83
2018-11-21T13:39:59.409Z,10.27
2018-11-21T13:42:46.459Z,9.70
2018-11-21T13:45:16.736Z,9.03
2018-11-21T13:48:19.965Z,9.20
2018-11-21T13:50:49.938Z,8.53
2018-11-21T13:53:38.368Z,10.57
2018-11-21T14:01:22.488Z,8.90
2018-11-21T14:03:52.181Z,7.80
2018-11-21T14:06:21.455Z,8.73
2018-11-21T14:08:51.141Z,8.97
2018-11-21T14:11:20.331Z,7.90
2018-11-21T14:16:20.473Z,8.63
2018-11-21T14:18:49.990Z,8.77
2018-11-21T14:21:19.233Z,9.10
2018-11-21T14:23:50.195Z,9.07
2018-11-21T14:26:19.690Z,8.00
2018-11-21T14:28:48.780Z,8.37
2018-11-21T14:33:49.544Z,9.60
2018-11-21T14:36:19.047Z,8.50
2018-11-21T14:38:48.666Z,8.30
2018-11-21T14:41:18.937Z,8.00
2018-11-21T14:43:52.284Z,7.50
2018-11-21T14:46:22.419Z,8.87
2018-11-21T14:48:52.465Z,7.70
2018-11-21T14:54:02.695Z,8.17
2018-11-21T14:59:06.539Z,7.30
2018-11-21T15:09:32.959Z,8.20
2018-11-21T15:12:02.213Z,7.80
2018-11-21T15:14:32.916Z,8.30
2018-11-21T15:17:02.159Z,8.87
2018-11-21T15:24:32.418Z,6.77
2018-11-21T15:27:02.012Z,6.70
2018-11-21T15:29:32.460Z,7.10
2018-11-21T15:32:02.067Z,7.80
2018-11-21T15:34:31.195Z,7.60
2018-11-21T15:39:36.114Z,7.83
2018-11-21T15:42:05.645Z,6.80
2018-11-21T15:47:05.566Z,8.03
2018-11-21T15:49:34.926Z,8.17
2018-11-21T15:52:04.643Z,8.00
2018-11-21T15:54:33.746Z,7.53
2018-11-21T15:59:44.534Z,8.10
2018-11-21T16:02:13.658Z,7.57
2018-11-21T16:07:20.105Z,7.93
2018-11-21T16:12:19.980Z,8.00
2018-11-21T16:17:19.345Z,7.40
2018-11-21T16:19:49.362Z,8.37
2018-11-21T16:22:18.597Z,6.83
2018-11-21T16:24:48.018Z,8.00
2018-11-21T16:27:17.510Z,7.63
2018-11-21T16:29:46.777Z,8.20
2018-11-21T16:32:16.614Z,8.60
2018-11-21T16:34:44.395Z,7.70
2018-11-21T16:37:13.819Z,8.03
2018-11-21T16:39:43.367Z,7.87
2018-11-21T16:42:12.664Z,9.23
2018-11-21T16:44:41.890Z,9.70
2018-11-21T16:47:13.920Z,14.20
2018-11-21T16:49:43.495Z,14.13
2018-11-21T16:52:15.411Z,13.20
2018-11-21T16:57:16.968Z,10.90
2018-11-21T16:59:46.348Z,10.30
2018-11-21T17:02:15.403Z,12.57
2018-11-21T17:04:44.846Z,11.00
2018-11-21T17:09:45.997Z,10.80
2018-11-21T17:12:15.961Z,11.00
2018-11-21T17:14:45.176Z,9.67
2018-11-21T17:17:14.769Z,9.33
2018-11-21T17:19:44.057Z,11.00
2018-11-21T17:22:13.643Z,11.37
2018-11-21T17:24:43.338Z,8.13
2018-11-21T17:27:12.987Z,9.47
2018-11-21T17:29:53.674Z,9.80
2018-11-21T17:34:44.066Z,10.50
2018-11-21T17:37:13.582Z,9.87
2018-11-21T17:39:42.725Z,9.23
2018-11-21T17:42:13.343Z,8.40
2018-11-21T17:44:42.708Z,7.90
2018-11-21T17:52:28.817Z,9.30
2018-11-21T17:54:57.876Z,9.97
2018-11-21T18:05:23.184Z,11.70
2018-11-21T18:21:09.331Z,11.87
2018-11-21T18:31:34.806Z,12.23
2018-11-21T18:34:04.044Z,11.77
2018-11-21T18:39:14.364Z,12.60
2018-11-21T18:41:44.782Z,12.40
2018-11-21T19:08:07.123Z,11.70
2018-11-21T19:40:02.187Z,11.00
2018-11-21T19:45:14.834Z,12.77
2018-11-21T19:47:44.135Z,12.17
2018-11-21T20:30:23.345Z,15.53
2018-11-21T20:35:34.330Z,14.90
2018-11-21T20:38:03.871Z,14.57
2018-11-21T20:50:56.471Z,15.80
2018-11-21T20:53:25.546Z,16.03
2018-11-21T20:55:54.807Z,14.33
2018-11-21T20:58:23.853Z,13.60
2018-11-21T21:00:52.922Z,14.80
2018-11-21T21:03:22.450Z,12.40
2018-11-21T21:11:11.739Z,14.30
2018-11-21T21:16:14.090Z,13.57
2018-11-21T21:21:20.619Z,14.13
2018-11-21T21:26:21.378Z,14.60
2018-11-21T21:28:52.738Z,14.50
2018-11-21T21:31:22.338Z,14.50
2018-11-21T21:33:52.111Z,14.20
2018-11-21T21:36:22.143Z,14.10
2018-11-21T21:41:33.913Z,15.27
2018-11-21T21:46:34.730Z,15.27
2018-11-21T21:49:05.147Z,15.70
2018-11-21T21:51:34.276Z,16.23
2018-11-21T21:56:46.331Z,16.17
2018-11-21T21:59:13.108Z,16.77
2018-11-21T22:01:42.360Z,16.60
2018-11-21T22:04:11.394Z,15.37
2018-11-21T22:09:13.615Z,18.70
2018-11-21T22:11:43.005Z,18.20
2018-11-21T22:16:49.405Z,17.00
2018-11-21T22:19:18.474Z,18.37
2018-11-21T22:21:47.786Z,18.10
2018-11-21T22:24:17.761Z,18.27
2018-11-21T22:29:17.221Z,18.27
2018-11-21T22:34:13.145Z,19.53
2018-11-21T22:41:49.191Z,18.97
2018-11-21T22:44:18.473Z,21.10
2018-11-21T22:51:52.977Z,20.83
2018-11-21T22:54:22.145Z,21.60
2018-11-21T22:56:51.537Z,21.87
2018-11-21T23:01:52.796Z,21.67
2018-11-21T23:04:21.880Z,20.50
2018-11-21T23:06:50.875Z,22.30
2018-11-21T23:09:20.080Z,23.00
2018-11-21T23:11:49.483Z,22.20
2018-11-21T23:19:25.346Z,21.47
2018-11-21T23:21:55.181Z,22.90
2018-11-21T23:24:24.168Z,20.67
2018-11-21T23:26:53.529Z,24.07
2018-11-21T23:31:54.965Z,21.97
2018-11-21T23:34:23.965Z,22.50
2018-11-21T23:36:53.014Z,23.37
2018-11-21T23:39:22.128Z,23.50
2018-11-21T23:41:51.100Z,24.10
2018-11-21T23:44:20.115Z,23.13
2018-11-21T23:52:08.126Z,23.93
2018-11-21T23:54:38.426Z,23.43
2018-11-21T23:57:16.092Z,22.27
2018-11-21T23:59:36.677Z,23.37
